Dauntless Aviation
Airports North America United States California
0O9

WARD FIELD AIRPORT

GASQUET, CA, USA

Airport Info
Suggest Updated Information for this Airport

Location

Latitude / Longitude: 41°50'44"N / 123°59'5"W
  41°50.735'N / 123°59.0867'W
  41.8456 / -123.9848
Elevation: 356.0 ft. (surveyed)
Variation: 18E (1985)
From city: 01 miles W of GASQUET, CA

Operations

Facility use: Open to the public
Sectional chart: KLAMATH FALLS
Control tower: no
Boundary ARTCC: SEATTLE
FSS: OAKLAND [1-800-WX-BRIEF]
NOTAMs facility: OAK (NOTAM-D service available)
Segmented circle: yes
Landing fee: no

Communications

CTAF: 122.900

Nearby radio navigation aids

VOR radial/distance VOR name Freq Var
CEC 71oT/12.1 CRESCENT CITY VORTAC 109.00 19E
 
NDB name Hdg/Dist Freq Var ID

Services

Runway Information

Runway 06/24

Dimensions: 2990 x 50 ft.
Surface: ASPHALT OR BITUMINOUS CONCRETE,GOOD CONDITION,NO SPECIAL SURFACE TREATMENT
 
Runway 06
Runway 24
Latitude: 41-50-41.8700N 41-50-46.3200N
Longitude: 123-59-24.7600W 123-58-45.7000W
Gradient: 0.3 0.3
Traffic pattern: left left
Displaced threshold: 500 ft. 490 ft.
Markings: basic, in good condition basic, in good condition
Runway end identifier lights: no no
Centerline lights: no no
Touchdown lights: no no
 

Operational Statistics

Annual operations: 2000
Local: 1000
Itinerant: 800
Military: 200

Additional Remarks

  • +5' BRUSH AND 30-100' TREES RIGHT AND LEFT IN PRIM SFC.
  • ARPT IN CANYON; HIGH MOUNTAINS AND TREES SURROUND ARPT MOUNTAIN FLYING EXPERIENCE STRONGLY RECOMMENDED.
  • NO NIGHT OPERATION AUTHORIZED.
  • AP SFC CONDS NOT RPRTD.

Instrument Procedures

No published instrument procedures available
Topographic chart at:
Satellite photo at:
Airport distance calculator
From:
Weather Reports

METAR

KCEC
11.4nm SW
KCEC 121356Z AUTO 11007KT 10SM CLR 08/M01 A3035 RMK AO2 SLP277 T00831011
KBOK
18.8nm NW
KBOK 121356Z AUTO 00000KT 10SM CLR 06/M01 A3035 RMK AO2 SLP294 T00561006

TAF

KCEC
11.4nm SW
KCEC 121138Z 1212/1312 06005KT P6SM SCT090 FM122000 33006KT P6SM SKC FM130400 12004KT P6SM SKC
Safelog

 

Dauntless Aviation

© 2007-2017 Dauntless Aviation, all rights reserved
Information provided via PilotNav comes from a variety of official and unofficial data sources. As errors are possible, do not use PilotNav for primary flight planning purposes. Verify any information that you receive via PilotNav with current and canonical charts and other official documents. The material in this database is subject to database copyrights held by Dauntless Aviation and may not be copied without the express permission of Dauntless Aviation - licenses for use of part of all of this data are available for purchase; enquire via the Dauntless Aviation helpdesk. A number of mechanisms and markers exist in the database to protect against and identify infringement / copyright. Automated queries against this website are stictly prohibited, and all activity is logged and analyzed.